CheckWX is a tool to help pilots better visualize weather data.  It is not intended as a substitute for an official pre-flight weather briefing.

20:36:25 UTC

KLOL METAR
Derby Field Airport
Lovelock, Nevada, USA
Current

43 mins ago

KLOL 161953Z AUTO 19009KT 10SM CLR 31/02 A2996 RMK AO2 SLP100 T03060017
Observed
Jul-16 @ 19:53 UTC
Wind
  • 190° at 9 KTS
Visibility
10 SM
Flight Rules
VFR
Cloud Levels
  • Clear skies
Temperature
31°C / 88°F
Dewpoint
C / 36°F
Humidity
16%
Altimeter
29.96" Hg
Pressure
1014.52 hPa
Previous

2 hours ago

KLOL 161853Z AUTO 19009KT 10SM CLR 29/04 A2997 RMK AO2 SLP102 T02940044
Observed
Jul-16 @ 18:53 UTC
Wind
  • 190° at 9 KTS
Visibility
10 SM
Flight Rules
VFR
Cloud Levels
  • Clear skies
Temperature
29°C / 84°F
Dewpoint
C / 39°F
Humidity
20%
Altimeter
29.97" Hg
Pressure
1014.92 hPa
Previous

3 hours ago

KLOL 161753Z AUTO VRB05KT 10SM CLR 28/06 A2998 RMK AO2 SLP104 T02830061 10283 20128 58006
Observed
Jul-16 @ 17:53 UTC
Wind
  • Variable at 5 KTS
Visibility
10 SM
Flight Rules
VFR
Cloud Levels
  • Clear skies
Temperature
28°C / 82°F
Dewpoint
C / 43°F
Humidity
25%
Altimeter
29.98" Hg
Pressure
1015.22 hPa